Time,TemperatureF,DewpointF,PressureIn,WindDirection,WindDirectionDegrees,WindSpeedMPH,WindSpeedGustMPH,Humidity,HourlyPrecipIn,Conditions,Clouds,dailyrainin,SoftwareType,DateUTC
2013-10-14 00:02:00,43.0,40.0,-100.00,North,3,8.0,11.0,89,0.00,,,0.23,,2013-10-14 06:02:00,
2013-10-14 00:22:00,42.0,40.0,-100.00,North,3,5.0,6.0,93,0.00,,,0.23,,2013-10-14 06:22:00,
2013-10-14 00:32:00,42.0,40.0,-100.00,North,3,5.0,6.0,93,0.00,,,0.23,,2013-10-14 06:32:00,
2013-10-14 00:52:00,41.0,39.0,-100.00,NNE,13,5.0,6.0,92,0.00,,,0.23,,2013-10-14 06:52:00,
2013-10-14 01:01:00,41.0,39.0,-100.00,NNE,13,5.0,6.0,92,0.00,,,0.23,,2013-10-14 07:01:00,
2013-10-14 01:22:00,40.0,39.0,-100.00,North,360,5.0,6.0,96,0.00,,,0.23,,2013-10-14 07:22:00,
2013-10-14 01:32:00,40.0,39.0,-100.00,North,360,5.0,6.0,96,0.00,,,0.23,,2013-10-14 07:32:00,
2013-10-14 01:52:00,41.0,39.0,-100.00,North,349,6.0,8.0,93,0.00,,,0.23,,2013-10-14 07:52:00,
2013-10-14 02:02:00,41.0,39.0,-100.00,North,349,6.0,8.0,93,0.00,,,0.23,,2013-10-14 08:02:00,
2013-10-14 02:21:00,41.0,39.0,-100.00,North,360,7.0,8.0,92,0.00,,,0.23,,2013-10-14 08:21:00,
2013-10-14 02:31:00,41.0,39.0,-100.00,North,360,7.0,8.0,92,0.00,,,0.23,,2013-10-14 08:31:00,
2013-10-14 02:52:00,42.0,39.0,-100.00,NNW,339,10.0,12.0,90,0.00,,,0.22,,2013-10-14 08:52:00,
2013-10-14 03:01:00,42.0,39.0,-100.00,NNW,339,10.0,12.0,90,0.00,,,0.22,,2013-10-14 09:01:00,
2013-10-14 03:22:00,41.0,39.0,-100.00,NNE,14,10.0,13.0,90,0.00,,,0.16,,2013-10-14 09:22:00,
2013-10-14 03:33:00,41.0,39.0,-100.00,NNE,14,10.0,13.0,90,0.00,,,0.16,,2013-10-14 09:33:00,
2013-10-14 03:53:00,41.0,38.0,-100.00,North,360,13.0,16.0,87,0.00,,,0.16,,2013-10-14 09:53:00,
2013-10-14 04:03:00,41.0,38.0,-100.00,North,360,13.0,16.0,87,0.00,,,0.16,,2013-10-14 10:03:00,
2013-10-14 04:22:00,41.0,38.0,-100.00,North,359,11.0,13.0,87,0.00,,,0.16,,2013-10-14 10:22:00,
2013-10-14 04:32:00,41.0,38.0,-100.00,North,359,11.0,13.0,87,0.00,,,0.16,,2013-10-14 10:32:00,
2013-10-14 04:53:00,40.0,37.0,-100.00,North,349,9.0,13.0,89,0.00,,,0.15,,2013-10-14 10:53:00,
2013-10-14 05:02:00,40.0,37.0,-100.00,North,349,9.0,13.0,89,0.00,,,0.15,,2013-10-14 11:02:00,
2013-10-14 05:22:00,40.0,38.0,-100.00,North,11,8.0,11.0,89,0.00,,,0.15,,2013-10-14 11:22:00,
2013-10-14 05:32:00,40.0,38.0,-100.00,North,11,8.0,11.0,89,0.00,,,0.15,,2013-10-14 11:32:00,
2013-10-14 05:52:00,41.0,37.0,-100.00,North,6,9.0,11.0,84,0.00,,,0.12,,2013-10-14 11:52:00,
2013-10-14 06:02:00,41.0,37.0,-100.00,North,6,9.0,11.0,84,0.00,,,0.12,,2013-10-14 12:02:00,
2013-10-14 06:22:00,41.0,36.0,-100.00,North,354,8.0,12.0,84,0.00,,,0.11,,2013-10-14 12:22:00,
2013-10-14 06:32:00,41.0,36.0,-100.00,North,354,8.0,12.0,84,0.00,,,0.11,,2013-10-14 12:32:00,
2013-10-14 06:52:00,40.0,36.0,-100.00,North,360,8.0,10.0,85,0.00,,,0.11,,2013-10-14 12:52:00,
2013-10-14 07:02:00,40.0,36.0,-100.00,North,360,8.0,10.0,85,0.00,,,0.11,,2013-10-14 13:02:00,
2013-10-14 07:21:00,40.0,36.0,-100.00,North,8,8.0,11.0,83,0.00,,,0.10,,2013-10-14 13:21:00,
2013-10-14 07:32:00,40.0,36.0,-100.00,North,8,8.0,11.0,83,0.00,,,0.10,,2013-10-14 13:32:00,
2013-10-14 07:52:00,40.0,35.0,-100.00,North,11,6.0,8.0,83,0.00,,,0.08,,2013-10-14 13:52:00,
2013-10-14 08:02:00,40.0,35.0,-100.00,North,11,6.0,8.0,83,0.00,,,0.08,,2013-10-14 14:02:00,
2013-10-14 08:22:00,40.0,35.0,-100.00,North,7,8.0,11.0,82,0.00,,,0.08,,2013-10-14 14:22:00,
2013-10-14 08:32:00,40.0,35.0,-100.00,North,7,8.0,11.0,82,0.00,,,0.08,,2013-10-14 14:32:00,
2013-10-14 08:52:00,40.0,35.0,-100.00,NNE,16,6.0,9.0,82,0.00,,,0.08,,2013-10-14 14:52:00,
2013-10-14 09:01:00,40.0,35.0,-100.00,NNE,16,6.0,9.0,82,0.00,,,0.08,,2013-10-14 15:01:00,
2013-10-14 09:21:00,40.0,35.0,-100.00,NNE,13,9.0,12.0,81,0.00,,,0.07,,2013-10-14 15:21:00,
2013-10-14 09:33:00,40.0,35.0,-100.00,NNE,13,9.0,12.0,81,0.00,,,0.07,,2013-10-14 15:33:00,
2013-10-14 09:54:00,40.0,34.0,-100.00,NNE,13,9.0,11.0,80,0.00,,,0.07,,2013-10-14 15:54:00,
2013-10-14 10:03:00,40.0,34.0,-100.00,NNE,13,9.0,11.0,80,0.00,,,0.07,,2013-10-14 16:03:00,
2013-10-14 10:23:00,40.0,34.0,-100.00,North,8,11.0,14.0,78,0.00,,,0.07,,2013-10-14 16:23:00,
2013-10-14 10:32:00,40.0,34.0,-100.00,North,8,11.0,14.0,78,0.00,,,0.07,,2013-10-14 16:32:00,
2013-10-14 10:53:00,41.0,34.0,-100.00,North,8,13.0,16.0,75,0.00,,,0.04,,2013-10-14 16:53:00,
2013-10-14 11:02:00,41.0,34.0,-100.00,North,8,13.0,16.0,75,0.00,,,0.04,,2013-10-14 17:02:00,
2013-10-14 11:22:00,41.0,34.0,-100.00,North,6,11.0,15.0,74,0.00,,,0.04,,2013-10-14 17:22:00,
2013-10-14 11:33:00,41.0,34.0,-100.00,North,6,11.0,15.0,74,0.00,,,0.04,,2013-10-14 17:33:00,
2013-10-14 12:22:00,42.0,33.0,-100.00,North,3,15.0,16.0,68,0.00,,,0.04,,2013-10-14 18:22:00,
2013-10-14 12:32:00,42.0,33.0,-100.00,North,3,15.0,16.0,68,0.00,,,0.04,,2013-10-14 18:32:00,
2013-10-14 12:52:00,43.0,33.0,-100.00,North,1,10.0,12.0,69,0.00,,,0.04,,2013-10-14 18:52:00,
2013-10-14 13:02:00,43.0,33.0,-100.00,North,1,10.0,12.0,69,0.00,,,0.04,,2013-10-14 19:02:00,
2013-10-14 13:21:00,44.0,33.0,-100.00,NNE,16,8.0,12.0,67,0.00,,,0.04,,2013-10-14 19:21:00,
2013-10-14 13:32:00,44.0,33.0,-100.00,NNE,16,8.0,12.0,67,0.00,,,0.04,,2013-10-14 19:32:00,
2013-10-14 13:52:00,45.0,32.0,-100.00,NNW,337,12.0,17.0,61,0.00,,,0.04,,2013-10-14 19:52:00,
2013-10-14 14:02:00,45.0,32.0,-100.00,NNW,337,12.0,17.0,61,0.00,,,0.04,,2013-10-14 20:02:00,
2013-10-14 14:22:00,47.0,32.0,-100.00,NNW,332,7.0,13.0,55,0.00,,,0.04,,2013-10-14 20:22:00,
2013-10-14 14:32:00,47.0,32.0,-100.00,NNW,332,7.0,13.0,55,0.00,,,0.04,,2013-10-14 20:32:00,
2013-10-14 14:52:00,44.0,31.0,-100.00,NNE,14,12.0,15.0,60,0.00,,,0.04,,2013-10-14 20:52:00,
2013-10-14 15:02:00,44.0,31.0,-100.00,NNE,14,12.0,15.0,60,0.00,,,0.04,,2013-10-14 21:02:00,
2013-10-14 15:21:00,47.0,30.0,-100.00,NNW,346,9.0,14.0,52,0.00,,,0.04,,2013-10-14 21:21:00,
2013-10-14 15:34:00,47.0,30.0,-100.00,NNW,346,9.0,14.0,52,0.00,,,0.04,,2013-10-14 21:34:00,
2013-10-14 15:54:00,47.0,31.0,-100.00,North,10,9.0,11.0,54,0.00,,,0.04,,2013-10-14 21:54:00,
2013-10-14 16:04:00,47.0,31.0,-100.00,North,10,9.0,11.0,54,0.00,,,0.04,,2013-10-14 22:04:00,
2013-10-14 16:24:00,47.0,32.0,-100.00,NNW,337,12.0,15.0,55,0.00,,,0.04,,2013-10-14 22:24:00,
2013-10-14 16:32:00,47.0,32.0,-100.00,NNW,337,12.0,15.0,55,0.00,,,0.04,,2013-10-14 22:32:00,
2013-10-14 16:54:00,48.0,31.0,-100.00,NW,326,13.0,19.0,53,0.00,,,0.04,,2013-10-14 22:54:00,
2013-10-14 17:03:00,48.0,31.0,-100.00,NW,326,13.0,19.0,53,0.00,,,0.04,,2013-10-14 23:03:00,
2013-10-14 17:22:00,47.0,32.0,-100.00,NNW,337,9.0,12.0,55,0.00,,,0.03,,2013-10-14 23:22:00,
2013-10-14 17:34:00,47.0,32.0,-100.00,NNW,337,9.0,12.0,55,0.00,,,0.03,,2013-10-14 23:34:00,
2013-10-14 17:52:00,43.0,35.0,-100.00,North,6,15.0,18.0,72,0.00,,,0.02,,2013-10-14 23:52:00,
2013-10-14 18:02:00,43.0,35.0,-100.00,North,6,15.0,18.0,72,0.00,,,0.02,,2013-10-15 00:02:00,
2013-10-14 18:22:00,43.0,35.0,-100.00,North,6,7.0,8.0,74,0.00,,,0.02,,2013-10-15 00:22:00,
2013-10-14 18:32:00,43.0,35.0,-100.00,North,6,7.0,8.0,74,0.00,,,0.02,,2013-10-15 00:32:00,
2013-10-14 18:52:00,42.0,35.0,-100.00,North,4,9.0,11.0,74,0.00,,,0.02,,2013-10-15 00:52:00,
2013-10-14 19:01:00,42.0,35.0,-100.00,North,4,9.0,11.0,74,0.00,,,0.02,,2013-10-15 01:01:00,
2013-10-14 19:11:00,42.0,35.0,-100.00,North,4,9.0,11.0,74,0.00,,,0.02,,2013-10-15 01:11:00,
2013-10-14 19:42:00,41.0,35.0,-100.00,North,8,5.0,6.0,80,0.00,,,0.02,,2013-10-15 01:42:00,
2013-10-14 20:12:00,40.0,35.0,-100.00,NNE,16,6.0,8.0,82,0.00,,,0.02,,2013-10-15 02:12:00,
2013-10-14 20:42:00,40.0,35.0,-100.00,North,349,6.0,7.0,83,0.00,,,0.02,,2013-10-15 02:42:00,
2013-10-14 21:11:00,37.0,35.0,-100.00,NW,316,4.0,5.0,91,0.00,,,0.02,,2013-10-15 03:11:00,
2013-10-14 21:44:00,36.0,35.0,-100.00,NNW,336,4.0,4.0,93,0.00,,,0.02,,2013-10-15 03:44:00,
2013-10-14 22:14:00,35.0,34.0,-100.00,WNW,301,5.0,5.0,95,0.00,,,0.00,,2013-10-15 04:14:00,
2013-10-14 22:43:00,38.0,35.0,-100.00,NNW,340,6.0,8.0,90,0.00,,,0.00,,2013-10-15 04:43:00,
2013-10-14 23:13:00,36.0,33.0,-100.00,NNW,337,8.0,10.0,92,0.00,,,0.00,,2013-10-15 05:13:00,
2013-10-14 23:42:00,36.0,33.0,-100.00,North,349,7.0,8.0,90,0.00,,,0.00,,2013-10-15 05:42:00,